Terminal Aerodrome Forecast
Issued by NWS Wilmington, OH

Current Version | Previous Version | Text Only | Print | Product List | Glossary Off
Versions: 1 2 3 4 5 6 7 8 9 10 11 12 13 14 15 16 17 18

000
FTUS41 KILN 082336
TAFDAY
TAF
KDAY 082336Z 0900/0924 20005KT P6SM SCT100 BKN200
     FM091400 22011G18KT P6SM -SN OVC050
      TEMPO 0914/0918 3SM -SN BR SCT025 OVC050
     FM091800 26014G22KT P6SM -SHSN OVC025
     FM092200 29015G24KT P6SM BKN025 OVC040=

USA.gov is the U.S. government's official web portal to all federal, state and local government web resources and services.